Data for 01/30/2010

Time Sea-Level Adjusted Pressure Absolute Pressure Temperature Relative Humidity Dew Point   
(mb) (inHg) (mb) (inHg) (C) (F) (%) (C) (F)
00:05 1018 30.06 847 25.01 -3.1 26.4 82 -5.8 21.6
00:10 1018 30.06 847 25.01 -3.1 26.4 81 -5.9 21.4
00:15 1018 30.06 847 25.01 -3.1 26.4 82 -5.8 21.5
00:20 1018 30.06 847 25.01 -3 26.5 82 -5.7 21.8
00:25 1017 30.03 847 25.01 -3 26.7 83 -5.5 22
00:30 1017 30.03 847 25.01 -2.9 26.7 82 -5.5 22
00:35 1017 30.03 847 25.01 -2.8 26.9 79 -6 21.3
00:40 1017 30.03 847 25.01 -2.7 27.2 79 -5.8 21.5
00:45 1017 30.03 847 25.01 -2.7 27.1 78 -6 21.2
00:50 1017 30.03 847 25.01 -2.8 26.9 80 -5.8 21.5
00:55 1017 30.03 847 25.01 -2.8 27 78 -6.1 21
01:00 1017 30.03 847 25.01 -2.5 27.4 77 -6 21.2
01:05 1017 30.03 847 25.01 -2.5 27.5 78 -5.9 21.5
01:10 1017 30.03 847 25.01 -2.5 27.5 79 -5.6 21.9
01:15 1017 30.03 847 25.01 -2.6 27.3 80 -5.6 22
01:20 1017 30.03 846 24.98 -2.6 27.2 77 -6.2 20.9
01:25 1017 30.03 846 24.98 -2.6 27.4 79 -5.7 21.7
01:30 1017 30.03 846 24.98 -2.7 27.2 78 -6 21.3
01:35 1017 30.03 846 24.98 -2.7 27.1 77 -6.1 20.9
01:40 1017 30.03 846 24.98 -2.8 27 73 -6.9 19.5
01:45 1017 30.03 846 24.98 -2.6 27.3 75 -6.5 20.2
01:50 1017 30.03 846 24.98 -2.4 27.6 75 -6.2 20.8
01:55 1017 30.03 846 24.98 -2.4 27.6 73 -6.7 19.9
02:00 1017 30.03 846 24.98 -2.4 27.6 73 -6.6 20.1
02:05 1017 30.03 846 24.98 -2.3 27.8 71 -6.9 19.6
02:10 1017 30.03 846 24.98 -2.2 28 74 -6.2 20.8
02:15 1017 30.03 846 24.98 -2.2 28.1 76 -5.9 21.4
02:20 1017 30.03 846 24.98 -2.1 28.1 78 -5.6 22
02:25 1017 30.03 846 24.98 -2.1 28.2 78 -5.5 22
02:30 1017 30.03 846 24.98 -2.3 27.9 80 -5.3 22.4
02:35 1017 30.03 846 24.98 -2.4 27.7 81 -5.3 22.5
02:40 1017 30.03 846 24.98 -2.5 27.5 81 -5.4 22.3
02:45 1017 30.03 846 24.98 -2.6 27.3 81 -5.5 22.2
02:50 1017 30.03 846 24.98 -2.7 27.2 80 -5.6 21.8
02:55 1017 30.03 846 24.98 -2.8 27 79 -5.8 21.5
03:00 1017 30.03 846 24.98 -2.8 27 80 -5.7 21.7
03:05 1017 30.03 846 24.98 -2.8 26.9 82 -5.5 22.2
03:10 1017 30.03 846 24.98 -2.9 26.8 82 -5.5 22
03:15 1017 30.03 846 24.98 -2.8 26.9 80 -5.8 21.6
03:20 1017 30.03 846 24.98 -2.7 27.1 81 -5.6 21.8
03:25 1017 30.03 846 24.98 -2.8 26.9 81 -5.6 21.9
03:30 1017 30.03 846 24.98 -3 26.6 84 -5.3 22.4
03:35 1017 30.03 846 24.98 -3.2 26.3 85 -5.3 22.5
03:40 1017 30.03 846 24.98 -3.2 26.3 86 -5.2 22.6
03:45 1017 30.03 846 24.98 -3.2 26.2 86 -5.3 22.5
03:50 1017 30.03 846 24.98 -3.1 26.3 84 -5.4 22.2
03:55 1017 30.03 846 24.98 -3.1 26.5 84 -5.4 22.4
04:00 1017 30.03 846 24.98 -3 26.5 84 -5.3 22.4
04:05 1017 30.03 846 24.98 -3.1 26.4 85 -5.3 22.4
04:10 1017 30.03 846 24.98 -3.2 26.3 85 -5.3 22.4
04:15 1017 30.03 846 24.98 -3.2 26.3 85 -5.3 22.4
04:20 1017 30.03 846 24.98 -3.2 26.2 85 -5.3 22.4
04:25 1017 30.03 846 24.98 -3.1 26.4 84 -5.4 22.3
04:30 1017 30.03 846 24.98 -3.2 26.3 86 -5.2 22.7
04:35 1017 30.03 846 24.98 -3.7 25.4 89 -5.3 22.4
04:40 1017 30.03 846 24.98 -4.5 24 92 -5.6 22
04:45 1017 30.03 846 24.98 -4.4 24.1 88 -6.1 21
04:50 1017 30.03 846 24.98 -4.2 24.4 85 -6.4 20.5
04:55 1017 30.03 846 24.98 -4.4 24.1 86 -6.4 20.5
05:00 1017 30.03 846 24.98 -4.5 23.9 85 -6.7 20
05:05 1017 30.03 846 24.98 -4.7 23.5 85 -6.8 19.8
05:10 1017 30.03 846 24.98 -4.9 23.1 86 -6.9 19.6
05:15 1017 30.03 846 24.98 -5 23 87 -6.8 19.8
05:20 1017 30.03 846 24.98 -5 22.9 87 -6.9 19.6
05:25 1017 30.03 846 24.98 -5.1 22.8 88 -6.8 19.7
05:30 1017 30.03 846 24.98 -5.5 22.1 88 -7.1 19.2
05:35 1017 30.03 846 24.98 -5.8 21.6 91 -7.1 19.3
05:40 1017 30.03 846 24.98 -5.8 21.6 92 -6.9 19.7
05:45 1017 30.03 846 24.98 -5.7 21.8 92 -6.8 19.7
05:50 1017 30.03 846 24.98 -5.7 21.8 92 -6.7 19.9
05:55 1017 30.03 846 24.98 -5.9 21.5 92 -6.9 19.6
06:00 1017 30.03 846 24.98 -6.1 21 94 -6.9 19.5
06:05 1017 30.03 846 24.98 -5.8 21.5 96 -6.4 20.5
06:10 1017 30.03 846 24.98 -5.3 22.5 93 -6.2 20.9
06:15 1017 30.03 846 24.98 -5.5 22.1 92 -6.5 20.2
06:20 1017 30.03 846 24.98 -5.6 21.9 95 -6.4 20.6
06:25 1017 30.03 846 24.98 -5.4 22.3 94 -6.2 20.9
06:30 1017 30.03 846 24.98 -5.2 22.6 94 -6.1 21.1
06:35 1017 30.03 846 24.98 -5.2 22.6 94 -6 21.2
06:40 1017 30.03 846 24.98 -5.4 22.3 94 -6.3 20.7
06:45 1017 30.03 846 24.98 -5.5 22.1 94 -6.3 20.6
06:50 1017 30.03 846 24.98 -5.4 22.3 94 -6.3 20.7
06:55 1017 30.03 846 24.98 -5.2 22.6 93 -6.2 20.8
07:00 1017 30.03 846 24.98 -5.3 22.4 92 -6.4 20.4
07:05 1017 30.03 846 24.98 -5.3 22.4 93 -6.3 20.6
07:10 1017 30.03 846 24.98 -5.2 22.6 92 -6.3 20.7
07:15 1017 30.03 846 24.98 -5.3 22.4 92 -6.4 20.5
07:20 1017 30.03 846 24.98 -5.4 22.2 92 -6.5 20.3
07:25 1017 30.03 846 24.98 -5.6 21.9 93 -6.6 20
07:30 1017 30.03 846 24.98 -5.7 21.8 93 -6.6 20.1
07:35 1017 30.03 846 24.98 -5.7 21.7 93 -6.6 20.1
07:40 1017 30.03 846 24.98 -5.1 22.7 92 -6.2 20.8
07:45 1017 30.03 846 24.98 -4.3 24.3 90 -5.7 21.8
07:50 1017 30.03 846 24.98 -4 24.8 88 -5.8 21.6
07:55 1017 30.03 846 24.98 -4 24.8 87 -5.9 21.4
08:00 1017 30.03 846 24.98 -4.5 23.9 85 -6.7 20
08:05 1017 30.03 846 24.98 -5.2 22.7 86 -7.2 19
08:10 1017 30.03 846 24.98 -5.8 21.5 85 -8 17.6
08:15 1017 30.03 846 24.98 -6.3 20.7 90 -7.7 18.1
08:20 1017 30.03 846 24.98 -6.2 20.8 89 -7.7 18.1
08:25 1017 30.03 846 24.98 -6 21.1 89 -7.6 18.4
08:30 1017 30.03 846 24.98 -5.6 22 87 -7.3 18.8
08:35 1017 30.03 846 24.98 -5.2 22.6 85 -7.4 18.7
08:40 1017 30.03 846 24.98 -5.1 22.9 83 -7.5 18.5
08:45 1017 30.03 846 24.98 -5.1 22.8 82 -7.7 18.1
08:50 1017 30.03 846 24.98 -5.5 22.2 82 -8.1 17.5
08:55 1017 30.03 847 25.01 -5.8 21.5 83 -8.2 17.2
09:00 1017 30.03 847 25.01 -5.9 21.3 84 -8.2 17.2
09:05 1017 30.03 847 25.01 -6.1 20.9 85 -8.2 17.2
09:10 1017 30.03 847 25.01 -6.3 20.7 86 -8.2 17.2
09:15 1017 30.03 847 25.01 -6.5 20.3 88 -8.1 17.4
09:20 1017 30.03 847 25.01 -5.9 21.4 86 -7.9 17.8
09:25 1017 30.03 847 25.01 -5.5 22.1 84 -7.8 17.9
09:30 1017 30.03 847 25.01 -5.5 22.1 84 -7.7 18.1
09:35 1017 30.03 847 25.01 -5.7 21.8 86 -7.6 18.3
09:40 1017 30.03 847 25.01 -5.7 21.7 86 -7.6 18.3
09:45 1017 30.03 847 25.01 -5.5 22 85 -7.6 18.3
09:50 1018 30.06 847 25.01 -5.2 22.7 83 -7.6 18.3
09:55 1018 30.06 847 25.01 -4.8 23.3 82 -7.4 18.7
10:00 1017 30.03 847 25.01 -4.3 24.3 81 -7.1 19.3
10:05 1017 30.03 847 25.01 -4.1 24.7 81 -6.8 19.8
10:10 1018 30.06 847 25.01 -3.7 25.4 78 -6.9 19.5
10:15 1018 30.06 847 25.01 -3.1 26.4 76 -6.8 19.8
10:20 1017 30.03 847 25.01 -2.7 27.1 74 -6.6 20.1
10:25 1017 30.03 847 25.01 -2 28.3 72 -6.4 20.5
10:30 1017 30.03 847 25.01 -1.6 29.1 71 -6.3 20.7
10:35 1017 30.03 847 25.01 -1 30.2 68 -6.2 20.9
10:40 1017 30.03 847 25.01 -0.7 30.8 67 -6.2 20.9
10:45 1017 30.03 847 25.01 -0.8 30.6 70 -5.6 21.9
10:50 1017 30.03 846 24.98 -2 28.5 74 -6 21.2
10:55 1017 30.03 846 24.98 -2.5 27.6 75 -6.3 20.6
11:00 1017 30.03 846 24.98 -2.6 27.2 75 -6.5 20.4
11:05 1017 30.03 846 24.98 -2.6 27.4 76 -6.3 20.7
11:10 1017 30.03 846 24.98 -2.6 27.4 75 -6.4 20.5
11:15 1017 30.03 846 24.98 -2.9 26.8 76 -6.5 20.3
11:20 1017 30.03 846 24.98 -3 26.6 77 -6.4 20.5
11:25 1017 30.03 846 24.98 -2.6 27.4 74 -6.6 20.1
11:30 1017 30.03 846 24.98 -1.9 28.6 72 -6.3 20.6
11:35 1017 30.03 846 24.98 -1.8 28.7 71 -6.4 20.5
11:40 1017 30.03 846 24.98 -2.2 28 74 -6.2 20.9
11:45 1017 30.03 846 24.98 -2.1 28.3 72 -6.4 20.4
11:50 1017 30.03 846 24.98 -1.7 28.9 70 -6.6 20.2
11:55 1017 30.03 846 24.98 -1.5 29.4 70 -6.3 20.7
12:00 1017 30.03 846 24.98 -1.5 29.3 70 -6.4 20.6
12:05 1017 30.03 846 24.98 -1 30.2 67 -6.5 20.4
12:10 1017 30.03 846 24.98 -0.7 30.8 67 -6.1 21
12:15 1017 30.03 846 24.98 -0.3 31.4 66 -6 21.2
12:20 1017 30.03 846 24.98 -0.2 31.7 64 -6.2 20.9
12:25 1016 30 846 24.98 -0.2 31.6 66 -5.8 21.6
12:30 1016 30 846 24.98 -0.6 30.9 67 -5.9 21.3
12:35 1016 30 846 24.98 -0.6 30.9 66 -6.1 21
12:40 1016 30 845 24.95 -0.6 31 67 -6 21.2
12:45 1016 30 845 24.95 -0.6 30.9 68 -5.8 21.6
12:50 1016 30 845 24.95 -0.7 30.7 67 -6.2 20.9
12:55 1016 30 845 24.95 -0.8 30.5 68 -5.9 21.3
13:00 1016 30 845 24.95 -1 30.2 68 -6.2 20.9
13:05 1016 30 845 24.95 -0.6 30.9 67 -6 21.3
13:10 1016 30 845 24.95 -0.3 31.5 64 -6.3 20.6
13:15 1016 30 845 24.95 -0.4 31.3 65 -6.1 20.9
13:20 1016 30 845 24.95 -0.5 31 65 -6.4 20.5
13:25 1016 30 845 24.95 -0.6 30.9 67 -6.1 21.1
13:30 1016 30 845 24.95 -1 30.3 67 -6.3 20.7
13:35 1016 30 845 24.95 -1 30.2 68 -6.2 20.9
13:40 1016 30 845 24.95 -1.3 29.7 69 -6.3 20.6
13:45 1016 30 845 24.95 -0.7 30.8 65 -6.3 20.6
13:50 1016 30 845 24.95 -0.4 31.3 66 -6 21.2
13:55 1016 30 845 24.95 -0.4 31.2 65 -6.2 20.9
14:00 1016 30 845 24.95 -0.5 31 66 -6.1 21.1
14:05 1016 30 845 24.95 -0.2 31.6 62 -6.5 20.2
14:10 1016 30 845 24.95 -0 31.9 62 -6.5 20.3
14:15 1016 30 845 24.95 0.3 32.5 62 -6.2 20.8
14:20 1016 30 845 24.95 0.1 32.2 63 -6.2 20.8
14:25 1016 30 845 24.95 0.1 32.1 64 -6 21.2
14:30 1016 30 845 24.95 -0 31.9 65 -5.9 21.3
14:35 1016 30 845 24.95 -0.1 31.9 65 -6 21.2
14:40 1016 30 845 24.95 0.4 32.8 61 -6.2 20.9
14:45 1015 29.97 845 24.95 0.3 32.6 63 -6 21.2
14:50 1015 29.97 845 24.95 -0.1 31.9 64 -6.2 20.9
14:55 1015 29.97 845 24.95 -0.2 31.6 64 -6.3 20.7
15:00 1015 29.97 845 24.95 0.1 32.1 61 -6.7 20
15:05 1015 29.97 845 24.95 0.3 32.6 60 -6.5 20.4
15:10 1015 29.97 845 24.95 0.4 32.7 61 -6.3 20.7
15:15 1015 29.97 845 24.95 0.4 32.8 60 -6.5 20.4
15:20 1015 29.97 844 24.92 0.5 32.8 61 -6.2 20.8
15:25 1015 29.97 844 24.92 0.4 32.8 62 -6.1 21
15:30 1015 29.97 844 24.92 0.3 32.6 62 -6.1 21
15:35 1015 29.97 844 24.92 0.1 32.1 63 -6.2 20.8
15:40 1015 29.97 844 24.92 0.4 32.7 61 -6.2 20.9
15:45 1015 29.97 844 24.92 -0.2 31.7 66 -5.8 21.6
15:50 1015 29.97 844 24.92 -1 30.2 68 -6.2 20.8
15:55 1015 29.97 844 24.92 -1.2 29.9 67 -6.5 20.4
16:00 1015 29.97 844 24.92 -0.9 30.4 68 -6.1 21.1
16:05 1015 29.97 844 24.92 -1.5 29.4 70 -6.3 20.7
16:10 1015 29.97 844 24.92 -1.9 28.5 71 -6.4 20.4
16:15 1015 29.97 844 24.92 -2 28.4 72 -6.4 20.4
16:20 1015 29.97 844 24.92 -2.1 28.1 72 -6.4 20.4
16:25 1015 29.97 844 24.92 -2 28.4 72 -6.4 20.4
16:30 1015 29.97 844 24.92 -2.2 28 75 -6.1 20.9
16:35 1015 29.97 844 24.92 -2.7 27.2 75 -6.5 20.4
16:40 1015 29.97 844 24.92 -2.6 27.3 77 -6.1 21
16:45 1015 29.97 844 24.92 -3.2 26.3 78 -6.6 20.2
16:50 1015 29.97 844 24.92 -3 26.6 76 -6.6 20.1
16:55 1015 29.97 844 24.92 -3.2 26.2 80 -6.2 20.8
17:00 1015 29.97 844 24.92 -3.1 26.4 78 -6.4 20.5
17:05 1015 29.97 844 24.92 -3.1 26.4 78 -6.4 20.5
17:10 1015 29.97 844 24.92 -3 26.5 78 -6.3 20.7
17:15 1015 29.97 844 24.92 -3.2 26.3 78 -6.5 20.3
17:20 1015 29.97 844 24.92 -3.3 26 79 -6.5 20.3
17:25 1015 29.97 844 24.92 -3.5 25.7 79 -6.6 20.2
17:30 1015 29.97 844 24.92 -3.7 25.4 81 -6.5 20.4
17:35 1015 29.97 844 24.92 -3.5 25.7 79 -6.6 20.1
17:40 1015 29.97 844 24.92 -3.5 25.6 80 -6.5 20.3
17:45 1015 29.97 844 24.92 -4 24.8 82 -6.6 20.1
17:50 1015 29.97 844 24.92 -4.1 24.6 82 -6.7 19.9
17:55 1015 29.97 844 24.92 -4 24.8 82 -6.7 20
18:00 1015 29.97 844 24.92 -4.1 24.6 82 -6.7 19.9
18:05 1015 29.97 844 24.92 -4.3 24.3 84 -6.6 20
18:10 1015 29.97 844 24.92 -4 24.8 82 -6.6 20.1
18:15 1015 29.97 844 24.92 -3.7 25.3 81 -6.5 20.3
18:20 1015 29.97 844 24.92 -4 24.9 83 -6.4 20.5
18:25 1015 29.97 844 24.92 -3.6 25.6 82 -6.2 20.8
18:30 1015 29.97 844 24.92 -3.7 25.4 83 -6.2 20.8
18:35 1015 29.97 844 24.92 -3.9 25 84 -6.3 20.7
18:40 1015 29.97 844 24.92 -4.2 24.5 84 -6.5 20.3
18:45 1015 29.97 844 24.92 -4 24.7 85 -6.1 20.9
18:50 1014 29.94 844 24.92 -2.6 27.3 81 -5.5 22.2
18:55 1014 29.94 844 24.92 -2.3 27.9 79 -5.4 22.2
19:00 1014 29.94 843 24.89 -2.2 28.1 80 -5.2 22.6
19:05 1014 29.94 843 24.89 -2.2 28 81 -5.1 22.8
19:10 1014 29.94 843 24.89 -2.4 27.7 82 -5 22.9
19:15 1014 29.94 843 24.89 -2.5 27.5 82 -5.1 22.8
19:20 1014 29.94 843 24.89 -2.6 27.3 83 -5.1 22.8
19:25 1014 29.94 843 24.89 -2.7 27.1 84 -5.1 22.8
19:30 1014 29.94 843 24.89 -2.8 27 84 -5.2 22.7
19:35 1014 29.94 843 24.89 -2.9 26.8 85 -5.1 22.7
19:40 1014 29.94 843 24.89 -3 26.6 84 -5.4 22.3
19:45 1014 29.94 843 24.89 -3 26.6 84 -5.4 22.4
19:50 1014 29.94 843 24.89 -3.1 26.4 84 -5.5 22.1
19:55 1014 29.94 843 24.89 -3.2 26.2 83 -5.8 21.6
20:00 1014 29.94 843 24.89 -3.3 26.1 81 -6 21.2
20:05 1014 29.94 843 24.89 -3.4 26 82 -6.1 21.1
20:10 1014 29.94 843 24.89 -3.4 25.9 81 -6.2 20.9
20:15 1014 29.94 843 24.89 -3.5 25.7 82 -6.2 20.9
20:20 1014 29.94 843 24.89 -3.6 25.6 82 -6.2 20.9
20:25 1014 29.94 843 24.89 -3.7 25.4 83 -6.1 21
20:30 1014 29.94 843 24.89 -3.8 25.2 84 -6.2 20.9
20:35 1014 29.94 843 24.89 -3.9 25 83 -6.3 20.7
20:40 1014 29.94 843 24.89 -4 24.9 83 -6.5 20.3
20:45 1014 29.94 843 24.89 -4 24.8 83 -6.5 20.2
20:50 1014 29.94 843 24.89 -4.1 24.7 83 -6.6 20.2
20:55 1014 29.94 843 24.89 -4.1 24.5 83 -6.7 20
21:00 1014 29.94 843 24.89 -4.2 24.5 82 -6.8 19.7
21:05 1014 29.94 843 24.89 -4.3 24.4 82 -6.8 19.7
21:10 1014 29.94 843 24.89 -4.3 24.2 82 -7 19.5
21:15 1014 29.94 843 24.89 -4.3 24.2 82 -7 19.4
21:20 1014 29.94 843 24.89 -4.4 24.1 82 -7 19.3
21:25 1014 29.94 843 24.89 -4.5 24 83 -7 19.5
21:30 1014 29.94 843 24.89 -4.6 23.8 83 -7 19.4
21:35 1014 29.94 843 24.89 -4.6 23.7 83 -7.1 19.3
21:40 1014 29.94 843 24.89 -4.6 23.7 82 -7.1 19.1
21:45 1014 29.94 843 24.89 -4.6 23.7 83 -7.1 19.2
21:50 1014 29.94 843 24.89 -4.7 23.5 83 -7.1 19.2
21:55 1014 29.94 843 24.89 -4.8 23.4 84 -7.1 19.2
22:00 1014 29.94 843 24.89 -4.9 23.2 84 -7.1 19.1
22:05 1014 29.94 843 24.89 -4.9 23.2 85 -7.1 19.2
22:10 1014 29.94 843 24.89 -5 23 85 -7.1 19.3
22:15 1014 29.94 843 24.89 -5 22.9 85 -7.2 19
22:20 1014 29.94 843 24.89 -5 23 85 -7.2 19.1
22:25 1014 29.94 843 24.89 -5 23.1 85 -7.2 19.1
22:30 1014 29.94 843 24.89 -5 22.9 84 -7.3 18.9
22:35 1014 29.94 843 24.89 -5.1 22.9 84 -7.4 18.7
22:40 1014 29.94 843 24.89 -5 23 83 -7.5 18.6
22:45 1014 29.94 843 24.89 -5.1 22.9 83 -7.5 18.5
22:50 1014 29.94 843 24.89 -5.1 22.7 84 -7.5 18.5
22:55 1014 29.94 843 24.89 -5.1 22.8 83 -7.5 18.5
23:00 1014 29.94 843 24.89 -5.2 22.7 84 -7.5 18.4
23:05 1014 29.94 843 24.89 -5.2 22.6 84 -7.5 18.6
23:10 1014 29.94 843 24.89 -5.4 22.4 85 -7.5 18.4
23:15 1014 29.94 843 24.89 -5.4 22.4 85 -7.5 18.4
23:20 1014 29.94 843 24.89 -5.4 22.3 85 -7.6 18.3
23:25 1014 29.94 843 24.89 -5.4 22.3 84 -7.7 18.2
23:30 1014 29.94 843 24.89 -5.3 22.4 84 -7.7 18.2
23:35 1014 29.94 843 24.89 -5.4 22.3 84 -7.7 18.2
23:40 1014 29.94 843 24.89 -5.4 22.3 84 -7.7 18.2
23:45 1014 29.94 843 24.89 -5.4 22.2 84 -7.7 18.2
23:50 1014 29.94 843 24.89 -5.4 22.3 84 -7.7 18.1
23:55 1014 29.94 843 24.89 -5.4 22.3 84 -7.7 18.1
24:00 1014 29.94 843 24.89 -5.3 22.4 84 -7.7 18.2